Terminal Aerodrome Forecast
Issued by NWS Louisville, KY

Home | Current Version | Previous Version | Text Only | Print | Product List | Glossary On
Versions: 1 2 3 4 5 6 7 8 9 10 11 12 13 14 15 16 17 18 19 20 21 22 23 24
000
FTUS43 KLMK 260500
TAFSDF
TAF
KSDF 260537Z 2606/2712 34014G21KT 5SM -RASN BR BKN012
      TEMPO 2606/2607 4SM -SN BR BKN009
     FM260700 33012G18KT 6SM BR BKN012
     FM261500 31010KT P6SM BKN015
     FM261800 31009KT P6SM BKN025 BKN060
     FM262100 30006KT P6SM SCT025 BKN050=

USA.gov is the U.S. government's official web portal to all federal, state and local government web resources and services.